sensor_id;sensor_type;location;lat;lon;timestamp;pressure;altitude;pressure_sealevel;temperature;humidity
56070;BME280;41944;52.078;-0.058;2023-09-19T00:00:57;100379.00;;;15.17;84.30
56070;BME280;41944;52.078;-0.058;2023-09-19T00:03:24;100377.49;;;15.12;84.31
56070;BME280;41944;52.078;-0.058;2023-09-19T00:05:52;100373.99;;;15.11;84.12
56070;BME280;41944;52.078;-0.058;2023-09-19T00:08:18;100378.27;;;15.20;84.49
56070;BME280;41944;52.078;-0.058;2023-09-19T00:10:45;100369.37;;;15.19;83.85
56070;BME280;41944;52.078;-0.058;2023-09-19T00:13:13;100370.27;;;15.15;83.81
56070;BME280;41944;52.078;-0.058;2023-09-19T00:15:41;100373.79;;;15.13;83.83
56070;BME280;41944;52.078;-0.058;2023-09-19T00:18:09;100369.99;;;15.15;83.71
56070;BME280;41944;52.078;-0.058;2023-09-19T00:20:36;100365.56;;;15.21;84.01
56070;BME280;41944;52.078;-0.058;2023-09-19T00:23:04;100366.99;;;15.14;83.64
56070;BME280;41944;52.078;-0.058;2023-09-19T00:25:31;100367.38;;;15.14;83.86
56070;BME280;41944;52.078;-0.058;2023-09-19T00:27:58;100370.91;;;15.14;83.86
56070;BME280;41944;52.078;-0.058;2023-09-19T00:30:25;100376.62;;;15.18;84.57
56070;BME280;41944;52.078;-0.058;2023-09-19T00:32:52;100381.16;;;15.18;84.88
56070;BME280;41944;52.078;-0.058;2023-09-19T00:35:19;100381.66;;;15.21;84.93
56070;BME280;41944;52.078;-0.058;2023-09-19T00:37:46;100384.43;;;15.18;85.12
56070;BME280;41944;52.078;-0.058;2023-09-19T00:40:12;100386.73;;;15.15;85.66
56070;BME280;41944;52.078;-0.058;2023-09-19T00:42:39;100392.08;;;15.18;86.18
56070;BME280;41944;52.078;-0.058;2023-09-19T00:45:08;100396.18;;;15.17;86.32
56070;BME280;41944;52.078;-0.058;2023-09-19T00:47:36;100398.07;;;15.09;86.91
56070;BME280;41944;52.078;-0.058;2023-09-19T00:50:04;100398.22;;;15.19;87.31
56070;BME280;41944;52.078;-0.058;2023-09-19T00:52:32;100405.08;;;15.22;86.91
56070;BME280;41944;52.078;-0.058;2023-09-19T00:55:00;100403.29;;;15.29;87.24
56070;BME280;41944;52.078;-0.058;2023-09-19T00:57:26;100407.31;;;15.25;87.13
56070;BME280;41944;52.078;-0.058;2023-09-19T00:59:55;100408.41;;;15.20;87.75
56070;BME280;41944;52.078;-0.058;2023-09-19T01:02:22;100404.52;;;15.14;88.30
56070;BME280;41944;52.078;-0.058;2023-09-19T01:04:50;100406.96;;;15.25;88.23
56070;BME280;41944;52.078;-0.058;2023-09-19T01:07:17;100402.54;;;15.15;88.54
56070;BME280;41944;52.078;-0.058;2023-09-19T01:09:44;100410.00;;;15.11;88.66
56070;BME280;41944;52.078;-0.058;2023-09-19T01:12:13;100404.27;;;15.19;88.71
56070;BME280;41944;52.078;-0.058;2023-09-19T01:14:48;100414.08;;;15.28;88.63
56070;BME280;41944;52.078;-0.058;2023-09-19T01:17:24;100415.65;;;15.35;88.25
56070;BME280;41944;52.078;-0.058;2023-09-19T01:20:21;100410.65;;;15.22;88.76
56070;BME280;41944;52.078;-0.058;2023-09-19T01:22:57;100414.37;;;15.33;88.54
56070;BME280;41944;52.078;-0.058;2023-09-19T01:25:55;100413.29;;;15.17;88.76
56070;BME280;41944;52.078;-0.058;2023-09-19T01:28:31;100409.11;;;15.17;88.91
56070;BME280;41944;52.078;-0.058;2023-09-19T01:31:01;100401.78;;;15.22;88.98
56070;BME280;41944;52.078;-0.058;2023-09-19T01:33:29;100398.63;;;15.30;89.12
56070;BME280;41944;52.078;-0.058;2023-09-19T01:36:20;100402.57;;;15.30;88.44
56070;BME280;41944;52.078;-0.058;2023-09-19T01:38:47;100402.78;;;15.24;88.90
56070;BME280;41944;52.078;-0.058;2023-09-19T01:41:16;100395.22;;;15.22;89.07
56070;BME280;41944;52.078;-0.058;2023-09-19T01:43:48;100407.14;;;15.30;89.22
56070;BME280;41944;52.078;-0.058;2023-09-19T01:46:19;100400.73;;;15.29;89.59
56070;BME280;41944;52.078;-0.058;2023-09-19T01:48:57;100399.29;;;15.21;89.06
56070;BME280;41944;52.078;-0.058;2023-09-19T01:51:33;100401.04;;;15.08;89.70
56070;BME280;41944;52.078;-0.058;2023-09-19T01:54:04;100396.52;;;15.09;90.13
56070;BME280;41944;52.078;-0.058;2023-09-19T01:56:40;100391.01;;;15.23;89.47
56070;BME280;41944;52.078;-0.058;2023-09-19T01:59:13;100393.52;;;15.25;89.40
56070;BME280;41944;52.078;-0.058;2023-09-19T02:01:41;100401.64;;;15.22;89.35
56070;BME280;41944;52.078;-0.058;2023-09-19T02:04:09;100398.05;;;15.19;89.30
56070;BME280;41944;52.078;-0.058;2023-09-19T02:06:39;100393.13;;;15.23;89.50
56070;BME280;41944;52.078;-0.058;2023-09-19T02:09:07;100397.98;;;15.21;89.52
56070;BME280;41944;52.078;-0.058;2023-09-19T02:11:34;100410.02;;;15.06;89.90
56070;BME280;41944;52.078;-0.058;2023-09-19T02:14:01;100407.97;;;14.92;90.93
56070;BME280;41944;52.078;-0.058;2023-09-19T02:16:29;100407.51;;;14.90;91.08
56070;BME280;41944;52.078;-0.058;2023-09-19T02:18:56;100405.90;;;15.03;91.31
56070;BME280;41944;52.078;-0.058;2023-09-19T02:21:22;100397.06;;;14.98;91.48
56070;BME280;41944;52.078;-0.058;2023-09-19T02:23:49;100399.99;;;15.11;90.71
56070;BME280;41944;52.078;-0.058;2023-09-19T02:26:16;100392.74;;;15.15;90.77
56070;BME280;41944;52.078;-0.058;2023-09-19T02:28:43;100378.64;;;15.14;90.53
56070;BME280;41944;52.078;-0.058;2023-09-19T02:31:10;100380.62;;;15.09;90.82
56070;BME280;41944;52.078;-0.058;2023-09-19T02:33:37;100377.74;;;15.08;90.85
56070;BME280;41944;52.078;-0.058;2023-09-19T02:36:04;100382.70;;;14.95;91.45
56070;BME280;41944;52.078;-0.058;2023-09-19T02:38:32;100385.65;;;14.95;91.45
56070;BME280;41944;52.078;-0.058;2023-09-19T02:40:58;100386.40;;;14.94;91.40
56070;BME280;41944;52.078;-0.058;2023-09-19T02:43:25;100385.20;;;15.00;91.41
56070;BME280;41944;52.078;-0.058;2023-09-19T02:45:52;100391.28;;;14.96;91.72
56070;BME280;41944;52.078;-0.058;2023-09-19T02:48:19;100389.53;;;15.05;91.19
56070;BME280;41944;52.078;-0.058;2023-09-19T02:50:49;100395.86;;;15.15;90.61
56070;BME280;41944;52.078;-0.058;2023-09-19T02:53:16;100399.41;;;15.15;89.87
56070;BME280;41944;52.078;-0.058;2023-09-19T02:55:43;100397.59;;;15.17;89.87
56070;BME280;41944;52.078;-0.058;2023-09-19T02:58:10;100402.00;;;15.18;89.86
56070;BME280;41944;52.078;-0.058;2023-09-19T03:00:37;100402.58;;;15.19;89.99
56070;BME280;41944;52.078;-0.058;2023-09-19T03:03:05;100395.74;;;15.24;89.25
56070;BME280;41944;52.078;-0.058;2023-09-19T03:05:33;100396.25;;;15.22;90.07
56070;BME280;41944;52.078;-0.058;2023-09-19T03:08:00;100392.05;;;15.22;88.99
56070;BME280;41944;52.078;-0.058;2023-09-19T03:10:27;100387.03;;;15.24;89.33
56070;BME280;41944;52.078;-0.058;2023-09-19T03:12:56;100385.72;;;15.25;88.96
56070;BME280;41944;52.078;-0.058;2023-09-19T03:15:23;100387.52;;;15.31;88.89
56070;BME280;41944;52.078;-0.058;2023-09-19T03:17:50;100388.55;;;15.38;88.65
56070;BME280;41944;52.078;-0.058;2023-09-19T03:20:17;100384.12;;;15.31;88.63
56070;BME280;41944;52.078;-0.058;2023-09-19T03:22:44;100381.67;;;15.37;89.10
56070;BME280;41944;52.078;-0.058;2023-09-19T03:25:12;100377.99;;;15.33;89.00
56070;BME280;41944;52.078;-0.058;2023-09-19T03:27:40;100375.10;;;15.38;88.70
56070;BME280;41944;52.078;-0.058;2023-09-19T03:30:08;100376.23;;;15.40;88.30
56070;BME280;41944;52.078;-0.058;2023-09-19T03:32:35;100378.21;;;15.42;88.81
56070;BME280;41944;52.078;-0.058;2023-09-19T03:35:03;100374.39;;;15.51;88.17
56070;BME280;41944;52.078;-0.058;2023-09-19T03:37:31;100370.25;;;15.51;88.32
56070;BME280;41944;52.078;-0.058;2023-09-19T03:39:58;100363.56;;;15.43;88.06
56070;BME280;41944;52.078;-0.058;2023-09-19T03:42:25;100359.43;;;15.48;88.15
56070;BME280;41944;52.078;-0.058;2023-09-19T03:44:52;100351.37;;;15.51;87.79
56070;BME280;41944;52.078;-0.058;2023-09-19T03:47:19;100348.14;;;15.46;87.50
56070;BME280;41944;52.078;-0.058;2023-09-19T03:49:45;100349.07;;;15.42;87.40
56070;BME280;41944;52.078;-0.058;2023-09-19T03:52:12;100348.94;;;15.37;87.47
56070;BME280;41944;52.078;-0.058;2023-09-19T03:54:39;100338.38;;;15.29;87.73
56070;BME280;41944;52.078;-0.058;2023-09-19T03:57:07;100333.12;;;15.22;88.16
56070;BME280;41944;52.078;-0.058;2023-09-19T03:59:34;100335.16;;;15.23;88.12
56070;BME280;41944;52.078;-0.058;2023-09-19T04:02:01;100335.23;;;15.06;88.82
56070;BME280;41944;52.078;-0.058;2023-09-19T04:04:28;100318.43;;;15.15;89.33
56070;BME280;41944;52.078;-0.058;2023-09-19T04:06:54;100311.20;;;15.25;89.19
56070;BME280;41944;52.078;-0.058;2023-09-19T04:09:21;100311.48;;;15.17;88.67
56070;BME280;41944;52.078;-0.058;2023-09-19T04:11:48;100320.49;;;15.18;88.96
56070;BME280;41944;52.078;-0.058;2023-09-19T04:14:15;100316.65;;;15.17;89.05
56070;BME280;41944;52.078;-0.058;2023-09-19T04:16:42;100313.85;;;15.17;89.39
56070;BME280;41944;52.078;-0.058;2023-09-19T04:19:09;100315.47;;;15.26;89.08
56070;BME280;41944;52.078;-0.058;2023-09-19T04:21:36;100308.95;;;15.31;88.48
56070;BME280;41944;52.078;-0.058;2023-09-19T04:24:04;100312.52;;;15.40;88.25
56070;BME280;41944;52.078;-0.058;2023-09-19T04:26:31;100310.63;;;15.46;87.95
56070;BME280;41944;52.078;-0.058;2023-09-19T04:28:58;100307.86;;;15.51;87.67
56070;BME280;41944;52.078;-0.058;2023-09-19T04:31:25;100304.37;;;15.46;87.75
56070;BME280;41944;52.078;-0.058;2023-09-19T04:33:52;100302.73;;;15.39;87.93
56070;BME280;41944;52.078;-0.058;2023-09-19T04:36:19;100308.82;;;15.40;87.81
56070;BME280;41944;52.078;-0.058;2023-09-19T04:38:46;100309.85;;;15.39;87.74
56070;BME280;41944;52.078;-0.058;2023-09-19T04:41:12;100307.22;;;15.51;87.99
56070;BME280;41944;52.078;-0.058;2023-09-19T04:43:39;100301.94;;;15.53;87.70
56070;BME280;41944;52.078;-0.058;2023-09-19T04:46:07;100302.29;;;15.52;87.39
56070;BME280;41944;52.078;-0.058;2023-09-19T04:48:34;100303.20;;;15.54;87.69
56070;BME280;41944;52.078;-0.058;2023-09-19T04:51:01;100300.43;;;15.58;86.83
56070;BME280;41944;52.078;-0.058;2023-09-19T04:53:28;100294.98;;;15.59;87.13
56070;BME280;41944;52.078;-0.058;2023-09-19T04:55:55;100275.72;;;15.64;87.15
56070;BME280;41944;52.078;-0.058;2023-09-19T04:58:22;100271.61;;;15.74;86.65
56070;BME280;41944;52.078;-0.058;2023-09-19T05:00:49;100269.54;;;15.76;86.59
56070;BME280;41944;52.078;-0.058;2023-09-19T05:03:16;100263.21;;;15.84;86.65
56070;BME280;41944;52.078;-0.058;2023-09-19T05:05:44;100253.29;;;15.89;85.07
56070;BME280;41944;52.078;-0.058;2023-09-19T05:08:11;100253.01;;;15.87;85.32
56070;BME280;41944;52.078;-0.058;2023-09-19T05:10:38;100251.82;;;15.91;85.93
56070;BME280;41944;52.078;-0.058;2023-09-19T05:13:06;100252.27;;;15.95;85.74
56070;BME280;41944;52.078;-0.058;2023-09-19T05:15:33;100251.93;;;16.00;85.70
56070;BME280;41944;52.078;-0.058;2023-09-19T05:18:00;100245.06;;;15.99;85.68
56070;BME280;41944;52.078;-0.058;2023-09-19T05:20:26;100243.42;;;15.96;85.86
56070;BME280;41944;52.078;-0.058;2023-09-19T05:22:58;100241.54;;;15.97;85.43
56070;BME280;41944;52.078;-0.058;2023-09-19T05:25:25;100240.58;;;15.90;85.88
56070;BME280;41944;52.078;-0.058;2023-09-19T05:27:53;100237.65;;;15.89;86.04
56070;BME280;41944;52.078;-0.058;2023-09-19T05:30:20;100237.06;;;15.96;86.19
56070;BME280;41944;52.078;-0.058;2023-09-19T05:32:47;100233.99;;;15.95;85.81
56070;BME280;41944;52.078;-0.058;2023-09-19T05:35:14;100230.92;;;15.97;86.18
56070;BME280;41944;52.078;-0.058;2023-09-19T05:37:41;100224.79;;;15.95;86.15
56070;BME280;41944;52.078;-0.058;2023-09-19T05:40:09;100231.24;;;15.99;86.20
56070;BME280;41944;52.078;-0.058;2023-09-19T05:42:36;100223.87;;;16.01;86.25
56070;BME280;41944;52.078;-0.058;2023-09-19T05:45:05;100221.98;;;16.06;85.85
56070;BME280;41944;52.078;-0.058;2023-09-19T05:47:33;100215.39;;;16.07;85.74
56070;BME280;41944;52.078;-0.058;2023-09-19T05:49:59;100216.49;;;16.09;85.91
56070;BME280;41944;52.078;-0.058;2023-09-19T05:52:27;100209.68;;;16.11;85.37
56070;BME280;41944;52.078;-0.058;2023-09-19T05:54:54;100204.28;;;16.09;86.10
56070;BME280;41944;52.078;-0.058;2023-09-19T05:57:21;100195.53;;;16.11;86.05
56070;BME280;41944;52.078;-0.058;2023-09-19T05:59:48;100198.10;;;16.17;85.50
56070;BME280;41944;52.078;-0.058;2023-09-19T06:02:14;100195.64;;;16.16;85.79
56070;BME280;41944;52.078;-0.058;2023-09-19T06:04:41;100198.22;;;16.20;85.97
56070;BME280;41944;52.078;-0.058;2023-09-19T06:07:08;100192.85;;;16.25;85.67
56070;BME280;41944;52.078;-0.058;2023-09-19T06:09:36;100197.27;;;16.27;85.68
56070;BME280;41944;52.078;-0.058;2023-09-19T06:12:03;100197.98;;;16.32;85.66
56070;BME280;41944;52.078;-0.058;2023-09-19T06:14:30;100200.43;;;16.37;85.54
56070;BME280;41944;52.078;-0.058;2023-09-19T06:16:57;100204.59;;;16.42;85.78
56070;BME280;41944;52.078;-0.058;2023-09-19T06:19:24;100196.29;;;16.47;85.56
56070;BME280;41944;52.078;-0.058;2023-09-19T06:21:52;100191.87;;;16.45;85.99
56070;BME280;41944;52.078;-0.058;2023-09-19T06:24:20;100188.15;;;16.45;86.35
56070;BME280;41944;52.078;-0.058;2023-09-19T06:26:46;100191.90;;;16.49;86.62
56070;BME280;41944;52.078;-0.058;2023-09-19T06:29:13;100191.35;;;16.51;87.02
56070;BME280;41944;52.078;-0.058;2023-09-19T06:31:40;100190.21;;;16.62;86.71
56070;BME280;41944;52.078;-0.058;2023-09-19T06:34:08;100187.43;;;16.70;86.44
56070;BME280;41944;52.078;-0.058;2023-09-19T06:36:35;100184.71;;;16.64;87.26
56070;BME280;41944;52.078;-0.058;2023-09-19T06:39:02;100175.74;;;16.76;86.76
56070;BME280;41944;52.078;-0.058;2023-09-19T06:41:30;100171.74;;;16.87;86.70
56070;BME280;41944;52.078;-0.058;2023-09-19T06:43:57;100171.10;;;16.92;86.66
56070;BME280;41944;52.078;-0.058;2023-09-19T06:46:24;100165.26;;;16.98;86.44
56070;BME280;41944;52.078;-0.058;2023-09-19T06:48:51;100166.10;;;17.05;85.97
56070;BME280;41944;52.078;-0.058;2023-09-19T06:51:18;100167.70;;;17.08;86.27
56070;BME280;41944;52.078;-0.058;2023-09-19T06:53:46;100157.38;;;17.05;86.75
56070;BME280;41944;52.078;-0.058;2023-09-19T06:56:12;100149.80;;;17.11;86.46
56070;BME280;41944;52.078;-0.058;2023-09-19T06:58:39;100147.20;;;17.13;86.36
56070;BME280;41944;52.078;-0.058;2023-09-19T07:01:07;100134.00;;;17.17;86.48
56070;BME280;41944;52.078;-0.058;2023-09-19T07:03:34;100129.65;;;17.22;86.34
56070;BME280;41944;52.078;-0.058;2023-09-19T07:06:01;100122.95;;;17.25;86.10
56070;BME280;41944;52.078;-0.058;2023-09-19T07:08:28;100131.50;;;17.22;86.59
56070;BME280;41944;52.078;-0.058;2023-09-19T07:10:56;100127.65;;;17.28;86.78
56070;BME280;41944;52.078;-0.058;2023-09-19T07:13:23;100127.39;;;17.37;86.46
56070;BME280;41944;52.078;-0.058;2023-09-19T07:15:50;100130.39;;;17.42;86.47
56070;BME280;41944;52.078;-0.058;2023-09-19T07:18:17;100118.25;;;17.42;87.34
56070;BME280;41944;52.078;-0.058;2023-09-19T07:20:45;100123.26;;;17.49;87.09
56070;BME280;41944;52.078;-0.058;2023-09-19T07:23:12;100100.32;;;17.56;86.76
56070;BME280;41944;52.078;-0.058;2023-09-19T07:25:39;100100.32;;;17.60;86.17
56070;BME280;41944;52.078;-0.058;2023-09-19T07:28:07;100095.56;;;17.70;85.93
56070;BME280;41944;52.078;-0.058;2023-09-19T07:30:36;100096.67;;;17.71;85.77
56070;BME280;41944;52.078;-0.058;2023-09-19T07:33:04;100102.02;;;17.75;85.80
56070;BME280;41944;52.078;-0.058;2023-09-19T07:35:31;100096.28;;;17.81;85.24
56070;BME280;41944;52.078;-0.058;2023-09-19T07:37:58;100098.08;;;17.83;85.26
56070;BME280;41944;52.078;-0.058;2023-09-19T07:40:25;100091.44;;;17.84;85.09
56070;BME280;41944;52.078;-0.058;2023-09-19T07:42:52;100082.39;;;17.90;84.70
56070;BME280;41944;52.078;-0.058;2023-09-19T07:45:19;100086.02;;;17.94;84.83
56070;BME280;41944;52.078;-0.058;2023-09-19T07:47:48;100084.40;;;17.94;84.97
56070;BME280;41944;52.078;-0.058;2023-09-19T07:50:15;100076.81;;;18.08;84.11
56070;BME280;41944;52.078;-0.058;2023-09-19T07:52:42;100074.73;;;18.21;83.43
56070;BME280;41944;52.078;-0.058;2023-09-19T07:55:10;100074.41;;;18.26;83.15
56070;BME280;41944;52.078;-0.058;2023-09-19T07:57:37;100070.41;;;18.35;82.75
56070;BME280;41944;52.078;-0.058;2023-09-19T08:00:06;100069.19;;;18.39;82.67
56070;BME280;41944;52.078;-0.058;2023-09-19T08:02:34;100065.43;;;18.42;82.67
56070;BME280;41944;52.078;-0.058;2023-09-19T08:05:01;100064.53;;;18.45;82.48
56070;BME280;41944;52.078;-0.058;2023-09-19T08:07:28;100058.46;;;18.51;82.13
56070;BME280;41944;52.078;-0.058;2023-09-19T08:09:56;100041.95;;;18.60;81.85
56070;BME280;41944;52.078;-0.058;2023-09-19T08:12:23;100056.24;;;18.66;81.10
56070;BME280;41944;52.078;-0.058;2023-09-19T08:14:50;100069.65;;;18.68;81.23
56070;BME280;41944;52.078;-0.058;2023-09-19T08:17:16;100063.78;;;18.70;81.25
56070;BME280;41944;52.078;-0.058;2023-09-19T08:19:45;100069.75;;;18.68;81.50
56070;BME280;41944;52.078;-0.058;2023-09-19T08:22:12;100060.99;;;18.69;81.41
56070;BME280;41944;52.078;-0.058;2023-09-19T08:24:40;100052.60;;;18.75;81.31
56070;BME280;41944;52.078;-0.058;2023-09-19T08:27:07;100062.32;;;18.85;81.25
56070;BME280;41944;52.078;-0.058;2023-09-19T08:29:34;100064.44;;;18.86;80.98
56070;BME280;41944;52.078;-0.058;2023-09-19T08:32:01;100066.89;;;19.01;80.77
56070;BME280;41944;52.078;-0.058;2023-09-19T08:34:28;100062.58;;;19.06;81.17
56070;BME280;41944;52.078;-0.058;2023-09-19T08:36:55;100057.40;;;19.02;80.56
56070;BME280;41944;52.078;-0.058;2023-09-19T08:39:23;100056.94;;;19.05;80.15
56070;BME280;41944;52.078;-0.058;2023-09-19T08:41:57;100055.74;;;19.17;80.33
56070;BME280;41944;52.078;-0.058;2023-09-19T08:44:24;100052.64;;;19.36;79.14
56070;BME280;41944;52.078;-0.058;2023-09-19T08:46:54;100042.40;;;19.42;79.03
56070;BME280;41944;52.078;-0.058;2023-09-19T08:49:27;100036.02;;;19.50;78.37
56070;BME280;41944;52.078;-0.058;2023-09-19T08:52:04;100028.88;;;19.49;78.85
56070;BME280;41944;52.078;-0.058;2023-09-19T08:54:37;100034.99;;;19.53;78.48
56070;BME280;41944;52.078;-0.058;2023-09-19T08:57:07;100035.25;;;19.65;77.97
56070;BME280;41944;52.078;-0.058;2023-09-19T08:59:37;100031.87;;;19.73;77.49
56070;BME280;41944;52.078;-0.058;2023-09-19T09:02:09;100037.87;;;19.78;77.86
56070;BME280;41944;52.078;-0.058;2023-09-19T09:04:39;100020.53;;;19.90;77.42
56070;BME280;41944;52.078;-0.058;2023-09-19T09:07:10;100032.95;;;19.88;76.02
56070;BME280;41944;52.078;-0.058;2023-09-19T09:09:38;100040.11;;;19.89;75.91
56070;BME280;41944;52.078;-0.058;2023-09-19T09:12:06;100039.55;;;19.90;76.90
56070;BME280;41944;52.078;-0.058;2023-09-19T09:14:34;100027.54;;;19.90;76.64
56070;BME280;41944;52.078;-0.058;2023-09-19T09:17:01;100037.43;;;19.92;76.58
56070;BME280;41944;52.078;-0.058;2023-09-19T09:19:28;100027.72;;;19.90;76.81
56070;BME280;41944;52.078;-0.058;2023-09-19T09:21:54;100010.28;;;19.85;76.63
56070;BME280;41944;52.078;-0.058;2023-09-19T09:24:32;100010.15;;;19.82;77.22
56070;BME280;41944;52.078;-0.058;2023-09-19T09:26:59;100004.37;;;19.85;77.01
56070;BME280;41944;52.078;-0.058;2023-09-19T09:29:42;100009.21;;;19.84;77.33
56070;BME280;41944;52.078;-0.058;2023-09-19T09:32:19;99998.37;;;19.89;76.72
56070;BME280;41944;52.078;-0.058;2023-09-19T09:34:49;99994.35;;;19.93;77.01
56070;BME280;41944;52.078;-0.058;2023-09-19T09:37:17;99983.52;;;19.82;77.14
56070;BME280;41944;52.078;-0.058;2023-09-19T09:39:49;99989.10;;;19.83;77.51
56070;BME280;41944;52.078;-0.058;2023-09-19T09:42:29;99993.29;;;19.88;78.20
56070;BME280;41944;52.078;-0.058;2023-09-19T09:45:14;99978.56;;;19.91;78.41
56070;BME280;41944;52.078;-0.058;2023-09-19T09:47:42;99969.08;;;20.00;78.19
56070;BME280;41944;52.078;-0.058;2023-09-19T09:50:10;99971.40;;;20.01;77.93
56070;BME280;41944;52.078;-0.058;2023-09-19T09:52:45;99985.31;;;20.03;77.30
56070;BME280;41944;52.078;-0.058;2023-09-19T09:55:12;99978.57;;;19.99;77.34
56070;BME280;41944;52.078;-0.058;2023-09-19T09:57:40;99977.32;;;20.02;78.40
56070;BME280;41944;52.078;-0.058;2023-09-19T10:00:08;99972.70;;;20.05;78.26
56070;BME280;41944;52.078;-0.058;2023-09-19T10:02:36;99975.90;;;20.07;77.95
56070;BME280;41944;52.078;-0.058;2023-09-19T10:05:12;99968.74;;;20.09;77.52
56070;BME280;41944;52.078;-0.058;2023-09-19T10:07:40;99970.74;;;20.08;78.15
56070;BME280;41944;52.078;-0.058;2023-09-19T10:10:08;99970.28;;;20.09;77.73
56070;BME280;41944;52.078;-0.058;2023-09-19T10:12:36;99964.17;;;20.15;78.22
56070;BME280;41944;52.078;-0.058;2023-09-19T10:15:07;99952.88;;;20.26;77.29
56070;BME280;41944;52.078;-0.058;2023-09-19T10:17:36;99966.86;;;20.34;76.64
56070;BME280;41944;52.078;-0.058;2023-09-19T10:20:04;99976.50;;;20.36;77.41
56070;BME280;41944;52.078;-0.058;2023-09-19T10:22:32;99969.31;;;20.29;77.29
56070;BME280;41944;52.078;-0.058;2023-09-19T10:25:01;99975.49;;;20.26;77.63
56070;BME280;41944;52.078;-0.058;2023-09-19T10:27:29;99959.90;;;20.26;78.04
56070;BME280;41944;52.078;-0.058;2023-09-19T10:29:57;99966.79;;;20.30;77.30
56070;BME280;41944;52.078;-0.058;2023-09-19T10:32:26;99968.19;;;20.45;77.98
56070;BME280;41944;52.078;-0.058;2023-09-19T10:34:55;99971.70;;;20.58;76.75
56070;BME280;41944;52.078;-0.058;2023-09-19T10:37:24;99969.63;;;20.65;77.26
56070;BME280;41944;52.078;-0.058;2023-09-19T10:39:55;99968.05;;;20.72;76.98
56070;BME280;41944;52.078;-0.058;2023-09-19T10:42:23;99960.35;;;20.67;76.11
56070;BME280;41944;52.078;-0.058;2023-09-19T10:44:52;99961.45;;;20.67;76.94
56070;BME280;41944;52.078;-0.058;2023-09-19T10:47:20;99964.60;;;20.70;77.10
56070;BME280;41944;52.078;-0.058;2023-09-19T10:49:48;99969.07;;;20.66;76.47
56070;BME280;41944;52.078;-0.058;2023-09-19T10:52:18;99970.32;;;20.79;76.95
56070;BME280;41944;52.078;-0.058;2023-09-19T10:54:51;99972.92;;;20.84;75.46
56070;BME280;41944;52.078;-0.058;2023-09-19T10:57:20;99962.81;;;20.86;76.01
56070;BME280;41944;52.078;-0.058;2023-09-19T11:00:02;99966.99;;;20.87;76.33
56070;BME280;41944;52.078;-0.058;2023-09-19T11:02:29;99972.02;;;20.77;76.04
56070;BME280;41944;52.078;-0.058;2023-09-19T11:05:11;99986.38;;;20.80;75.99
56070;BME280;41944;52.078;-0.058;2023-09-19T11:07:57;99981.69;;;20.91;76.28
56070;BME280;41944;52.078;-0.058;2023-09-19T11:10:57;99978.26;;;21.11;74.98
56070;BME280;41944;52.078;-0.058;2023-09-19T11:13:25;99977.34;;;21.18;75.33
56070;BME280;41944;52.078;-0.058;2023-09-19T11:16:04;99980.01;;;21.35;74.89
56070;BME280;41944;52.078;-0.058;2023-09-19T11:19:04;99969.83;;;21.43;74.20
56070;BME280;41944;52.078;-0.058;2023-09-19T11:21:56;99967.37;;;21.48;73.81
56070;BME280;41944;52.078;-0.058;2023-09-19T11:24:28;99959.86;;;21.50;73.60
56070;BME280;41944;52.078;-0.058;2023-09-19T11:27:11;99963.20;;;21.62;73.45
56070;BME280;41944;52.078;-0.058;2023-09-19T11:29:39;99964.08;;;21.81;73.70
56070;BME280;41944;52.078;-0.058;2023-09-19T11:32:07;99960.77;;;22.04;71.77
56070;BME280;41944;52.078;-0.058;2023-09-19T11:34:43;99963.55;;;22.11;71.58
56070;BME280;41944;52.078;-0.058;2023-09-19T11:38:15;99970.82;;;22.08;71.95
56070;BME280;41944;52.078;-0.058;2023-09-19T11:40:46;99974.82;;;22.00;72.09
56070;BME280;41944;52.078;-0.058;2023-09-19T11:43:30;99995.60;;;22.01;72.51
56070;BME280;41944;52.078;-0.058;2023-09-19T11:46:03;99976.34;;;21.84;72.72
56070;BME280;41944;52.078;-0.058;2023-09-19T11:48:32;99975.87;;;21.71;74.07
56070;BME280;41944;52.078;-0.058;2023-09-19T11:50:59;99986.22;;;21.59;74.09
56070;BME280;41944;52.078;-0.058;2023-09-19T11:53:31;99976.36;;;21.49;73.97
56070;BME280;41944;52.078;-0.058;2023-09-19T11:55:59;99977.35;;;21.45;74.73
56070;BME280;41944;52.078;-0.058;2023-09-19T11:58:26;99975.13;;;21.43;74.69
56070;BME280;41944;52.078;-0.058;2023-09-19T12:00:54;99976.86;;;21.43;75.38
56070;BME280;41944;52.078;-0.058;2023-09-19T12:03:21;99980.84;;;21.48;75.83
56070;BME280;41944;52.078;-0.058;2023-09-19T12:05:49;99981.68;;;21.45;75.28
56070;BME280;41944;52.078;-0.058;2023-09-19T12:08:16;99991.32;;;21.52;76.22
56070;BME280;41944;52.078;-0.058;2023-09-19T12:10:46;99986.33;;;21.42;76.20
56070;BME280;41944;52.078;-0.058;2023-09-19T12:13:16;99992.13;;;21.36;76.60
56070;BME280;41944;52.078;-0.058;2023-09-19T12:15:43;99983.90;;;21.26;75.69
56070;BME280;41944;52.078;-0.058;2023-09-19T12:18:25;99980.62;;;21.16;78.32
56070;BME280;41944;52.078;-0.058;2023-09-19T12:20:52;99974.02;;;21.12;78.19
56070;BME280;41944;52.078;-0.058;2023-09-19T12:23:19;99975.51;;;21.09;78.54
56070;BME280;41944;52.078;-0.058;2023-09-19T12:25:46;99974.70;;;21.05;78.73
56070;BME280;41944;52.078;-0.058;2023-09-19T12:28:13;99983.40;;;21.09;79.94
56070;BME280;41944;52.078;-0.058;2023-09-19T12:30:40;99972.83;;;21.07;81.02
56070;BME280;41944;52.078;-0.058;2023-09-19T12:33:15;99978.23;;;21.10;79.82
56070;BME280;41944;52.078;-0.058;2023-09-19T12:35:42;99975.97;;;21.15;80.47
56070;BME280;41944;52.078;-0.058;2023-09-19T12:38:09;99978.07;;;21.22;80.31
56070;BME280;41944;52.078;-0.058;2023-09-19T12:40:38;99971.03;;;21.21;80.05
56070;BME280;41944;52.078;-0.058;2023-09-19T12:43:05;99973.92;;;21.24;80.24
56070;BME280;41944;52.078;-0.058;2023-09-19T12:45:32;99977.99;;;21.24;80.83
56070;BME280;41944;52.078;-0.058;2023-09-19T12:48:32;99969.12;;;21.25;81.26
56070;BME280;41944;52.078;-0.058;2023-09-19T12:51:01;99980.03;;;21.19;83.86
56070;BME280;41944;52.078;-0.058;2023-09-19T12:53:28;99973.30;;;21.02;86.11